Time;durP1;ratioP1;P1;durP2;ratioP2;P2;SDS_P1;SDS_P2;PMS_P1;PMS_P2;Temp;Humidity;BMP_temperature;BMP_pressure;BME280_temperature;BME280_humidity;BME280_pressure;Samples;Min_cycle;Max_cycle;Signal;HPM_P1;HPM_P2
2023/01/02 00:00:05;;;;;;;;;;;18.70;53.50;;;;;;10251263;28;771;-75
2023/01/02 00:05:00;;;;;;;;;;;18.70;53.50;;;;;;10251049;28;1906;-75
2023/01/02 00:09:55;;;;;;;;;;;18.70;53.60;;;;;;10252097;28;837;-75
2023/01/02 00:14:51;;;;;;;;;;;18.70;53.60;;;;;;10250000;28;987;-75
2023/01/02 00:19:46;;;;;;;;;;;18.70;53.50;;;;;;10250518;28;877;-75
2023/01/02 00:24:41;;;;;;;;;;;18.70;53.50;;;;;;10250263;28;1972;-75
2023/01/02 00:29:37;;;;;;;;;;;18.70;53.50;;;;;;10251322;28;834;-75
2023/01/02 00:34:32;;;;;;;;;;;18.70;53.50;;;;;;10249756;28;1208;-75
2023/01/02 00:39:28;;;;;;;;;;;18.70;53.50;;;;;;10250386;28;786;-75
2023/01/02 00:44:23;;;;;;;;;;;18.70;53.40;;;;;;10249499;28;1965;-75
2023/01/02 00:49:18;;;;;;;;;;;18.60;53.40;;;;;;10248843;28;826;-75
2023/01/02 00:54:14;;;;;;;;;;;18.60;53.40;;;;;;10249207;28;795;-75
2023/01/02 00:59:09;;;;;;;;;;;18.70;53.40;;;;;;10248887;28;888;-75
2023/01/02 01:04:04;;;;;;;;;;;18.70;53.30;;;;;;10248846;28;1910;-75
2023/01/02 01:09:00;;;;;;;;;;;18.70;53.30;;;;;;10248663;28;791;-75
2023/01/02 01:13:55;;;;;;;;;;;18.70;53.30;;;;;;10249043;28;813;-75
2023/01/02 01:18:50;;;;;;;;;;;18.70;53.30;;;;;;10248296;28;869;-75
2023/01/02 01:23:46;;;;;;;;;;;18.70;53.30;;;;;;10248617;28;1939;-75
2023/01/02 01:28:41;;;;;;;;;;;18.60;53.30;;;;;;10248494;28;968;-75
2023/01/02 01:33:37;;;;;;;;;;;18.60;53.30;;;;;;10247818;28;1157;-75
2023/01/02 01:38:32;;;;;;;;;;;18.60;53.40;;;;;;10248179;28;881;-75
2023/01/02 01:43:27;;;;;;;;;;;18.60;53.30;;;;;;10247234;28;1910;-75
2023/01/02 01:48:23;;;;;;;;;;;18.60;53.30;;;;;;10247078;28;814;-75
2023/01/02 01:53:18;;;;;;;;;;;18.60;53.30;;;;;;10247559;28;871;-75
2023/01/02 01:58:13;;;;;;;;;;;18.60;53.30;;;;;;10247385;28;913;-75
2023/01/02 02:03:09;;;;;;;;;;;18.60;53.30;;;;;;10246710;28;1906;-75
2023/01/02 02:08:04;;;;;;;;;;;18.60;53.30;;;;;;10245815;28;918;-75
2023/01/02 02:12:59;;;;;;;;;;;18.60;53.30;;;;;;10246222;28;861;-75
2023/01/02 02:17:55;;;;;;;;;;;18.60;53.30;;;;;;10245975;28;881;-75
2023/01/02 02:22:50;;;;;;;;;;;18.60;53.30;;;;;;10246534;28;1902;-75
2023/01/02 02:27:45;;;;;;;;;;;18.60;53.30;;;;;;10246261;28;870;-77
2023/01/02 02:32:41;;;;;;;;;;;18.60;53.40;;;;;;10245791;28;1433;-75
2023/01/02 02:37:36;;;;;;;;;;;18.60;53.40;;;;;;10245396;28;958;-75
2023/01/02 02:42:32;;;;;;;;;;;18.60;53.30;;;;;;10245073;28;1977;-75
2023/01/02 02:47:27;;;;;;;;;;;18.60;53.40;;;;;;10245679;28;850;-75
2023/01/02 02:52:22;;;;;;;;;;;18.60;53.40;;;;;;10244769;28;988;-75
2023/01/02 02:57:18;;;;;;;;;;;18.60;53.30;;;;;;10244685;28;832;-75
2023/01/02 03:02:13;;;;;;;;;;;18.60;53.30;;;;;;10244474;28;1902;-75
2023/01/02 03:07:08;;;;;;;;;;;18.60;53.30;;;;;;10245001;28;780;-75
2023/01/02 03:12:04;;;;;;;;;;;18.60;53.30;;;;;;10244305;28;875;-75
2023/01/02 03:16:59;;;;;;;;;;;18.50;53.10;;;;;;10244130;28;865;-75
2023/01/02 03:21:55;;;;;;;;;;;18.60;53.20;;;;;;10243087;28;1977;-75
2023/01/02 03:26:50;;;;;;;;;;;18.50;53.10;;;;;;10243955;28;771;-75
2023/01/02 03:31:45;;;;;;;;;;;18.50;53.00;;;;;;10243804;28;1178;-75
2023/01/02 03:36:41;;;;;;;;;;;18.50;53.00;;;;;;10243729;28;1302;-75
2023/01/02 03:41:36;;;;;;;;;;;18.50;53.00;;;;;;10243582;28;1973;-75
2023/01/02 03:46:31;;;;;;;;;;;18.50;53.00;;;;;;10244231;28;861;-75
2023/01/02 03:51:27;;;;;;;;;;;18.50;53.00;;;;;;10242959;28;963;-75
2023/01/02 03:56:22;;;;;;;;;;;18.60;53.20;;;;;;10244067;28;918;-75
2023/01/02 04:01:17;;;;;;;;;;;18.50;53.10;;;;;;10243938;28;1907;-75
2023/01/02 04:06:13;;;;;;;;;;;18.50;53.00;;;;;;10243268;28;794;-75
2023/01/02 04:11:08;;;;;;;;;;;18.50;53.00;;;;;;10244110;28;815;-75
2023/01/02 04:16:04;;;;;;;;;;;18.50;53.10;;;;;;10243108;28;782;-75
2023/01/02 04:20:59;;;;;;;;;;;18.50;53.10;;;;;;10242361;28;1902;-75
2023/01/02 04:25:55;;;;;;;;;;;18.50;53.00;;;;;;10243487;28;841;-75
2023/01/02 04:30:50;;;;;;;;;;;18.50;53.10;;;;;;10245891;28;877;-75
2023/01/02 04:35:45;;;;;;;;;;;18.50;53.00;;;;;;10250264;28;1361;-75
2023/01/02 04:40:41;;;;;;;;;;;18.50;53.00;;;;;;10250410;28;898;-75
2023/01/02 04:45:36;;;;;;;;;;;18.50;52.80;;;;;;10250212;28;1910;-75
2023/01/02 04:50:31;;;;;;;;;;;18.50;52.80;;;;;;10249499;28;988;-75
2023/01/02 04:55:27;;;;;;;;;;;18.50;52.90;;;;;;10248949;28;941;-75
2023/01/02 05:00:22;;;;;;;;;;;18.50;53.00;;;;;;10248500;28;897;-75
2023/01/02 05:05:17;;;;;;;;;;;18.50;53.00;;;;;;10249245;28;1902;-75
2023/01/02 05:10:13;;;;;;;;;;;18.50;53.00;;;;;;10249505;28;920;-75
2023/01/02 05:15:08;;;;;;;;;;;18.50;52.90;;;;;;10249093;28;810;-75
2023/01/02 05:20:03;;;;;;;;;;;18.50;53.00;;;;;;10248343;28;781;-75
2023/01/02 05:24:59;;;;;;;;;;;18.50;53.00;;;;;;10248976;28;1975;-75
2023/01/02 05:29:54;;;;;;;;;;;18.50;53.10;;;;;;10248534;28;833;-75
2023/01/02 05:34:49;;;;;;;;;;;18.60;53.10;;;;;;10247602;28;1430;-75
2023/01/02 05:39:45;;;;;;;;;;;18.60;53.10;;;;;;10248298;28;924;-75
2023/01/02 05:44:40;;;;;;;;;;;18.60;53.00;;;;;;10246999;28;1894;-75
2023/01/02 05:49:36;;;;;;;;;;;18.70;53.20;;;;;;10246589;28;1054;-75
2023/01/02 05:54:31;;;;;;;;;;;18.70;53.10;;;;;;10247007;28;924;-75
2023/01/02 05:59:26;;;;;;;;;;;18.70;53.10;;;;;;10247372;28;884;-75
2023/01/02 06:04:22;;;;;;;;;;;18.70;53.10;;;;;;10247102;28;1961;-75
2023/01/02 06:09:17;;;;;;;;;;;18.70;53.00;;;;;;10246419;28;861;-75
2023/01/02 06:14:12;;;;;;;;;;;18.70;53.00;;;;;;10246433;28;964;-75
2023/01/02 06:19:08;;;;;;;;;;;18.70;53.00;;;;;;10246591;28;882;-75
2023/01/02 06:24:03;;;;;;;;;;;18.70;53.00;;;;;;10245753;28;1963;-75
2023/01/02 06:28:58;;;;;;;;;;;18.70;53.00;;;;;;10245776;28;912;-75
2023/01/02 06:33:54;;;;;;;;;;;18.70;53.00;;;;;;10245415;28;1156;-75
2023/01/02 06:38:49;;;;;;;;;;;18.70;53.00;;;;;;10245329;28;785;-75
2023/01/02 06:43:45;;;;;;;;;;;18.70;52.90;;;;;;10245658;28;1915;-75
2023/01/02 06:48:40;;;;;;;;;;;18.70;53.00;;;;;;10245437;28;857;-75
2023/01/02 06:53:35;;;;;;;;;;;18.70;53.00;;;;;;10244347;28;988;-75
2023/01/02 06:58:31;;;;;;;;;;;18.70;53.00;;;;;;10244374;28;821;-74
2023/01/02 07:03:26;;;;;;;;;;;18.70;52.90;;;;;;10244227;28;1953;-75
2023/01/02 07:08:21;;;;;;;;;;;18.70;53.00;;;;;;10244694;28;862;-75
2023/01/02 07:13:17;;;;;;;;;;;18.70;52.90;;;;;;10244254;28;917;-75
2023/01/02 07:18:12;;;;;;;;;;;18.70;53.00;;;;;;10243363;28;921;-75
2023/01/02 07:23:07;;;;;;;;;;;18.70;53.00;;;;;;10243715;28;1903;-75
2023/01/02 07:28:03;;;;;;;;;;;18.70;53.00;;;;;;10243719;28;865;-75
2023/01/02 07:32:58;;;;;;;;;;;18.70;53.10;;;;;;10243882;28;1177;-75
2023/01/02 07:37:54;;;;;;;;;;;18.70;53.10;;;;;;10242981;28;913;-75
2023/01/02 07:42:49;;;;;;;;;;;18.70;53.10;;;;;;10243486;28;1967;-75
2023/01/02 07:47:44;;;;;;;;;;;18.70;52.90;;;;;;10243958;28;779;-75
2023/01/02 07:52:40;;;;;;;;;;;18.80;53.00;;;;;;10243908;28;801;-75
2023/01/02 07:57:35;;;;;;;;;;;18.70;52.90;;;;;;10242616;28;926;-70
2023/01/02 08:02:30;;;;;;;;;;;18.70;53.00;;;;;;10243242;28;1971;-67
2023/01/02 08:07:26;;;;;;;;;;;18.80;53.10;;;;;;10247479;28;806;-69
2023/01/02 08:12:21;;;;;;;;;;;18.90;53.10;;;;;;10250325;28;1067;-70
2023/01/02 08:17:16;;;;;;;;;;;18.90;53.20;;;;;;10250439;28;922;-72
2023/01/02 08:22:12;;;;;;;;;;;18.90;53.20;;;;;;10250990;28;1911;-69
2023/01/02 08:27:07;;;;;;;;;;;18.80;53.20;;;;;;10249473;28;1066;-69
2023/01/02 08:32:02;;;;;;;;;;;18.80;53.30;;;;;;10249720;28;1287;-69
2023/01/02 08:36:58;;;;;;;;;;;18.80;53.60;;;;;;10249946;28;971;-69
2023/01/02 08:41:53;;;;;;;;;;;18.80;53.80;;;;;;10249701;28;1910;-69
2023/01/02 08:46:48;;;;;;;;;;;18.80;53.70;;;;;;10249599;28;973;-70
2023/01/02 08:51:44;;;;;;;;;;;18.90;53.70;;;;;;10249369;28;849;-70
2023/01/02 08:56:40;;;;;;;;;;;18.90;53.90;;;;;;10249294;28;984;-68
2023/01/02 09:01:35;;;;;;;;;;;18.90;53.90;;;;;;10249016;28;1898;-71
2023/01/02 09:06:30;;;;;;;;;;;18.90;53.80;;;;;;10249021;28;1000;-71
2023/01/02 09:11:26;;;;;;;;;;;18.90;54.20;;;;;;10248117;28;894;-71
2023/01/02 09:16:21;;;;;;;;;;;18.90;54.20;;;;;;10248433;28;767;-71
2023/01/02 09:21:17;;;;;;;;;;;18.90;54.30;;;;;;10248278;28;1951;-71
2023/01/02 09:26:12;;;;;;;;;;;18.90;54.40;;;;;;10248800;28;845;-71
2023/01/02 09:31:07;;;;;;;;;;;19.00;54.50;;;;;;10247433;28;772;-71
2023/01/02 09:36:03;;;;;;;;;;;19.00;54.60;;;;;;10248122;28;1105;-75
2023/01/02 09:40:58;;;;;;;;;;;18.90;54.60;;;;;;10247601;28;802;-73
2023/01/02 09:45:54;;;;;;;;;;;18.90;54.70;;;;;;10248070;28;1914;-72
2023/01/02 09:50:49;;;;;;;;;;;18.90;54.90;;;;;;10247991;28;787;-78
2023/01/02 09:55:44;;;;;;;;;;;18.90;54.70;;;;;;10246991;28;826;-71
2023/01/02 10:00:40;;;;;;;;;;;18.90;54.60;;;;;;10247626;28;852;-72
2023/01/02 10:05:35;;;;;;;;;;;18.90;54.60;;;;;;10247250;28;1910;-73
2023/01/02 10:10:33;;;;;;;;;;;18.90;54.70;;;;;;10247032;28;947;-73
2023/01/02 10:15:28;;;;;;;;;;;18.90;54.70;;;;;;10246810;28;833;-73
2023/01/02 10:20:27;;;;;;;;;;;18.90;54.70;;;;;;10246622;28;827;-72
2023/01/02 10:25:22;;;;;;;;;;;18.90;54.70;;;;;;10245195;28;1966;-73
2023/01/02 10:30:17;;;;;;;;;;;18.90;54.70;;;;;;10245783;28;872;-73
2023/01/02 10:35:13;;;;;;;;;;;18.90;54.60;;;;;;10245140;28;1415;-73
2023/01/02 10:40:08;;;;;;;;;;;19.00;54.40;;;;;;10246040;28;854;-72
2023/01/02 10:45:03;;;;;;;;;;;18.90;54.20;;;;;;10245061;28;1984;-73
2023/01/02 10:49:59;;;;;;;;;;;18.90;54.40;;;;;;10244397;28;917;-73
2023/01/02 10:54:54;;;;;;;;;;;19.00;54.20;;;;;;10244262;28;945;-73
2023/01/02 10:59:50;;;;;;;;;;;19.00;54.30;;;;;;10244701;28;789;-73
2023/01/02 11:04:45;;;;;;;;;;;19.00;54.20;;;;;;10244738;28;1910;-73
2023/01/02 11:09:41;;;;;;;;;;;19.00;54.30;;;;;;10244278;28;972;-78
2023/01/02 11:14:36;;;;;;;;;;;19.00;54.30;;;;;;10244904;28;895;-72
2023/01/02 11:19:32;;;;;;;;;;;19.00;54.40;;;;;;10243001;28;1003;-73
2023/01/02 11:24:28;;;;;;;;;;;19.00;54.50;;;;;;10243996;28;1963;-73
2023/01/02 11:29:23;;;;;;;;;;;19.00;54.60;;;;;;10244733;28;920;-73
2023/01/02 11:34:19;;;;;;;;;;;19.00;54.70;;;;;;10243715;28;1391;-73
2023/01/02 11:39:14;;;;;;;;;;;19.00;54.80;;;;;;10243224;28;1460;-73
2023/01/02 11:44:10;;;;;;;;;;;19.00;55.20;;;;;;10250857;28;1981;-72
2023/01/02 11:49:05;;;;;;;;;;;19.10;55.40;;;;;;10252438;28;886;-72
2023/01/02 11:54:00;;;;;;;;;;;19.10;55.70;;;;;;10251664;28;798;-73
2023/01/02 11:58:56;;;;;;;;;;;19.10;56.10;;;;;;10251433;28;774;-73
2023/01/02 12:03:51;;;;;;;;;;;19.10;56.30;;;;;;10251207;28;1973;-71
2023/01/02 12:08:46;;;;;;;;;;;19.10;56.30;;;;;;10251728;28;916;-71
2023/01/02 12:13:42;;;;;;;;;;;19.10;56.90;;;;;;10251530;28;806;-72
2023/01/02 12:18:37;;;;;;;;;;;19.00;57.30;;;;;;10251281;28;810;-72
2023/01/02 12:23:33;;;;;;;;;;;19.00;57.70;;;;;;10249877;28;1968;-72
2023/01/02 12:28:30;;;;;;;;;;;19.10;58.20;;;;;;10250969;28;853;-72
2023/01/02 12:33:26;;;;;;;;;;;19.00;58.20;;;;;;10248889;28;1406;-73
2023/01/02 12:38:21;;;;;;;;;;;19.00;58.30;;;;;;10248598;28;889;-72
2023/01/02 12:43:17;;;;;;;;;;;19.10;58.20;;;;;;10247367;28;1971;-72
2023/01/02 12:48:12;;;;;;;;;;;19.20;57.40;;;;;;10247290;28;891;-72
2023/01/02 12:53:07;;;;;;;;;;;19.20;57.00;;;;;;10247321;28;865;-72
2023/01/02 12:58:03;;;;;;;;;;;19.20;56.80;;;;;;10246958;28;811;-71
2023/01/02 13:02:58;;;;;;;;;;;19.20;56.90;;;;;;10247932;28;1975;-72
2023/01/02 13:07:53;;;;;;;;;;;19.20;57.00;;;;;;10246643;28;913;-72
2023/01/02 13:12:49;;;;;;;;;;;19.20;57.10;;;;;;10246344;28;795;-73
2023/01/02 13:17:44;;;;;;;;;;;19.20;57.10;;;;;;10245526;28;908;-72
2023/01/02 13:22:40;;;;;;;;;;;19.10;57.20;;;;;;10246807;28;1967;-72
2023/01/02 13:27:35;;;;;;;;;;;19.10;57.20;;;;;;10245728;28;922;-72
2023/01/02 13:32:31;;;;;;;;;;;19.10;57.20;;;;;;10208089;28;1107565;-71
2023/01/02 13:37:26;;;;;;;;;;;19.10;57.20;;;;;;10247569;28;798;-72
2023/01/02 13:47:36;;;;;;;;;;;19.00;57.10;;;;;;10246595;28;628;-72
2023/01/02 13:52:31;;;;;;;;;;;19.00;57.00;;;;;;10247130;28;809;-71
2023/01/02 13:57:26;;;;;;;;;;;19.00;56.80;;;;;;10247288;28;886;-72
2023/01/02 14:02:22;;;;;;;;;;;19.00;56.60;;;;;;10245175;28;1902;-72
2023/01/02 14:07:17;;;;;;;;;;;19.10;56.50;;;;;;10246902;28;956;-72
2023/01/02 14:12:12;;;;;;;;;;;19.00;56.70;;;;;;10245519;28;964;-73
2023/01/02 14:17:08;;;;;;;;;;;18.80;56.70;;;;;;10245951;28;765;-72
2023/01/02 14:22:03;;;;;;;;;;;18.80;56.80;;;;;;10245695;28;1910;-71
2023/01/02 14:26:58;;;;;;;;;;;18.80;56.80;;;;;;10245574;28;759;-71
2023/01/02 14:31:54;;;;;;;;;;;18.70;56.70;;;;;;10245426;28;847;-73
2023/01/02 14:36:49;;;;;;;;;;;18.70;56.70;;;;;;10246003;28;1201;-73
2023/01/02 14:46:59;;;;;;;;;;;18.70;56.70;;;;;;10244946;28;609;-74
2023/01/02 14:51:54;;;;;;;;;;;18.70;56.80;;;;;;10244742;28;861;-73
2023/01/02 14:56:49;;;;;;;;;;;18.70;56.70;;;;;;10245128;28;919;-74
2023/01/02 15:01:45;;;;;;;;;;;18.70;56.70;;;;;;10244335;28;1910;-74
2023/01/02 15:06:40;;;;;;;;;;;18.70;56.60;;;;;;10244941;28;882;-72
2023/01/02 15:16:50;;;;;;;;;;;18.60;56.50;;;;;;10243671;28;608;-72
2023/01/02 15:21:45;;;;;;;;;;;18.60;56.60;;;;;;10245112;28;1910;-72
2023/01/02 15:26:43;;;;;;;;;;;18.60;56.70;;;;;;10243809;28;1669;-72
2023/01/02 15:31:38;;;;;;;;;;;18.60;56.80;;;;;;10243471;28;987;-72
2023/01/02 15:36:34;;;;;;;;;;;18.60;56.70;;;;;;10243974;28;1211;-72
2023/01/02 15:41:29;;;;;;;;;;;18.60;56.70;;;;;;10243462;28;1981;-73
2023/01/02 15:46:25;;;;;;;;;;;18.70;56.70;;;;;;10243559;28;949;-73
2023/01/02 15:51:22;;;;;;;;;;;18.70;56.60;;;;;;10243318;28;928;-72
2023/01/02 15:56:17;;;;;;;;;;;18.70;56.50;;;;;;10243951;28;798;-73
2023/01/02 16:01:12;;;;;;;;;;;18.60;56.40;;;;;;10243153;28;817;-72
2023/01/02 16:06:08;;;;;;;;;;;18.60;56.60;;;;;;10243662;28;1894;-73
2023/01/02 16:11:04;;;;;;;;;;;18.60;56.40;;;;;;10243559;28;921;-72
2023/01/02 16:15:59;;;;;;;;;;;18.60;56.60;;;;;;10243458;28;875;-71
2023/01/02 16:20:54;;;;;;;;;;;18.60;56.50;;;;;;10243300;28;972;-72
2023/01/02 16:25:50;;;;;;;;;;;18.60;56.30;;;;;;10243048;28;1902;-71
2023/01/02 16:30:45;;;;;;;;;;;18.60;56.20;;;;;;10249445;28;846;-72
2023/01/02 16:35:40;;;;;;;;;;;18.60;56.10;;;;;;10250299;28;1165;-72
2023/01/02 16:40:36;;;;;;;;;;;18.60;56.10;;;;;;10249676;28;914;-71
2023/01/02 16:45:31;;;;;;;;;;;18.60;56.10;;;;;;10249999;28;1914;-71
2023/01/02 16:50:27;;;;;;;;;;;18.60;56.10;;;;;;10248717;28;823;-72
2023/01/02 16:55:22;;;;;;;;;;;18.60;56.10;;;;;;10249109;28;943;-71
2023/01/02 17:00:18;;;;;;;;;;;18.60;56.10;;;;;;10249018;28;789;-72
2023/01/02 17:05:13;;;;;;;;;;;18.50;55.90;;;;;;10248854;28;1898;-73
2023/01/02 17:10:08;;;;;;;;;;;18.50;55.90;;;;;;10248812;28;1003;-72
2023/01/02 17:15:04;;;;;;;;;;;18.50;55.90;;;;;;10248324;28;924;-72
2023/01/02 17:19:59;;;;;;;;;;;18.50;55.90;;;;;;10248156;28;765;-73
2023/01/02 17:24:54;;;;;;;;;;;18.60;55.90;;;;;;10247833;28;1958;-72
2023/01/02 17:29:50;;;;;;;;;;;18.60;55.80;;;;;;10247873;28;964;-74
2023/01/02 17:34:47;;;;;;;;;;;18.60;55.70;;;;;;10247720;28;1553;-72
2023/01/02 17:39:42;;;;;;;;;;;18.60;55.80;;;;;;10247150;28;922;-72
2023/01/02 17:44:38;;;;;;;;;;;18.60;56.10;;;;;;10247741;28;1918;-72
2023/01/02 17:49:33;;;;;;;;;;;18.50;56.20;;;;;;10248041;28;787;-71
2023/01/02 17:54:28;;;;;;;;;;;18.50;56.10;;;;;;10247634;28;867;-72
2023/01/02 17:59:24;;;;;;;;;;;18.50;56.10;;;;;;10246600;28;891;-73
2023/01/02 18:04:19;;;;;;;;;;;18.50;55.90;;;;;;10245900;28;1960;-72
2023/01/02 18:09:15;;;;;;;;;;;18.50;55.90;;;;;;10246232;28;856;-73
2023/01/02 18:14:10;;;;;;;;;;;18.50;55.90;;;;;;10246692;28;835;-73
2023/01/02 18:19:05;;;;;;;;;;;18.50;55.80;;;;;;10245882;28;849;-72
2023/01/02 18:24:01;;;;;;;;;;;18.50;55.70;;;;;;10245937;28;1914;-73
2023/01/02 18:28:58;;;;;;;;;;;18.50;55.50;;;;;;10245604;28;779;-73
2023/01/02 18:33:53;;;;;;;;;;;18.50;55.50;;;;;;10244749;28;1565;-73
2023/01/02 18:38:49;;;;;;;;;;;18.50;55.40;;;;;;10246062;28;966;-73
2023/01/02 18:43:44;;;;;;;;;;;18.50;55.10;;;;;;10244935;28;1918;-73
2023/01/02 18:48:40;;;;;;;;;;;18.50;55.00;;;;;;10244489;28;950;-72
2023/01/02 18:53:35;;;;;;;;;;;18.50;55.20;;;;;;10245228;28;763;-72
2023/01/02 18:58:31;;;;;;;;;;;18.50;55.10;;;;;;10244056;28;901;-72
2023/01/02 19:03:26;;;;;;;;;;;18.50;55.10;;;;;;10244625;28;1907;-74
2023/01/02 19:08:21;;;;;;;;;;;18.50;55.10;;;;;;10244351;28;869;-72
2023/01/02 19:13:17;;;;;;;;;;;18.80;56.10;;;;;;10244415;28;1616;-72
2023/01/02 19:18:12;;;;;;;;;;;19.00;55.80;;;;;;10244035;28;850;-72
2023/01/02 19:23:07;;;;;;;;;;;19.00;56.00;;;;;;10243217;28;1907;-71
2023/01/02 19:28:04;;;;;;;;;;;19.00;56.10;;;;;;10243767;28;936;-72
2023/01/02 19:33:00;;;;;;;;;;;19.10;56.50;;;;;;10243549;28;1121;-72
2023/01/02 19:37:55;;;;;;;;;;;19.00;56.50;;;;;;10243790;28;803;-73
2023/01/02 19:42:50;;;;;;;;;;;19.00;56.60;;;;;;10243739;28;1922;-73
2023/01/02 19:47:46;;;;;;;;;;;19.00;56.70;;;;;;10244299;28;861;-73
2023/01/02 19:52:41;;;;;;;;;;;19.00;56.60;;;;;;10244256;28;853;-73
2023/01/02 19:57:37;;;;;;;;;;;18.90;56.80;;;;;;10243538;28;1004;-73
2023/01/02 20:02:32;;;;;;;;;;;18.90;56.80;;;;;;10246440;28;1906;-73
2023/01/02 20:07:27;;;;;;;;;;;18.90;56.80;;;;;;10251299;28;880;-73
2023/01/02 20:12:29;;;;;;;;;;;19.00;56.30;;;;;;10252330;28;915;-73
2023/01/02 20:17:24;;;;;;;;;;;19.10;55.90;;;;;;10250872;28;912;-73
2023/01/02 20:22:20;;;;;;;;;;;19.00;55.50;;;;;;10251215;28;1960;-73
2023/01/02 20:27:15;;;;;;;;;;;19.10;55.50;;;;;;10250695;28;839;-73
2023/01/02 20:32:11;;;;;;;;;;;19.10;55.60;;;;;;10250424;28;964;-73
2023/01/02 20:37:06;;;;;;;;;;;19.00;55.70;;;;;;10250786;28;1185;-73
2023/01/02 20:42:03;;;;;;;;;;;19.00;55.90;;;;;;10250561;28;1918;-73
2023/01/02 20:47:00;;;;;;;;;;;19.00;56.00;;;;;;10249804;28;884;-73
2023/01/02 20:51:55;;;;;;;;;;;19.00;56.10;;;;;;10250244;28;810;-73
2023/01/02 20:56:51;;;;;;;;;;;18.90;56.00;;;;;;10249477;28;874;-73
2023/01/02 21:01:46;;;;;;;;;;;18.90;56.10;;;;;;10249956;28;2039;-73
2023/01/02 21:06:42;;;;;;;;;;;18.90;56.00;;;;;;10249702;28;790;-73
2023/01/02 21:11:37;;;;;;;;;;;18.90;55.80;;;;;;10248598;28;912;-73
2023/01/02 21:16:32;;;;;;;;;;;19.00;55.70;;;;;;10248715;28;860;-73
2023/01/02 21:21:29;;;;;;;;;;;18.90;55.50;;;;;;10248472;28;875;-73
2023/01/02 21:26:24;;;;;;;;;;;18.90;55.50;;;;;;10249112;28;1898;-73
2023/01/02 21:31:20;;;;;;;;;;;18.90;55.40;;;;;;10248768;28;826;-73
2023/01/02 21:36:15;;;;;;;;;;;18.90;55.50;;;;;;10247632;28;1445;-73
2023/01/02 21:46:42;;;;;;;;;;;18.80;55.30;;;;;;10173238;28;1371;-79
2023/01/02 21:51:37;;;;;;;;;;;18.60;55.40;;;;;;10247406;28;768;-79
2023/01/02 21:56:32;;;;;;;;;;;18.50;55.50;;;;;;10247187;28;792;-79
2023/01/02 22:01:28;;;;;;;;;;;18.50;55.50;;;;;;10247170;28;823;-79
2023/01/02 22:06:24;;;;;;;;;;;18.50;55.50;;;;;;10246085;28;1894;-78
2023/01/02 22:16:34;;;;;;;;;;;18.40;55.40;;;;;;10245919;28;676;-79
2023/01/02 22:21:30;;;;;;;;;;;18.40;55.40;;;;;;10246763;28;873;-79
2023/01/02 22:26:25;;;;;;;;;;;18.30;55.50;;;;;;10245353;28;1906;-79
2023/01/02 22:31:21;;;;;;;;;;;18.30;55.40;;;;;;10246710;28;810;-79
2023/01/02 22:36:16;;;;;;;;;;;18.30;55.40;;;;;;10245434;28;1185;-79
2023/01/02 22:41:11;;;;;;;;;;;18.40;55.60;;;;;;10245533;28;764;-79
2023/01/02 22:46:07;;;;;;;;;;;18.30;55.40;;;;;;10244650;28;1963;-79
2023/01/02 22:51:02;;;;;;;;;;;18.30;55.30;;;;;;10245773;28;873;-79
2023/01/02 22:55:57;;;;;;;;;;;18.30;55.30;;;;;;10245617;28;771;-79
2023/01/02 23:00:53;;;;;;;;;;;18.30;55.40;;;;;;10244265;28;972;-79
2023/01/02 23:05:48;;;;;;;;;;;18.30;55.50;;;;;;10243895;28;1894;-79
2023/01/02 23:10:43;;;;;;;;;;;18.30;55.90;;;;;;10244573;28;770;-79
2023/01/02 23:19:13;;;;;;;;;;;18.30;55.30;;;;;;10244617;28;863;-79
2023/01/02 23:20:54;;;;;;;;;;;18.30;55.30;;;;;;10243578;28;1523;-79
2023/01/02 23:25:49;;;;;;;;;;;18.30;55.30;;;;;;10244697;28;1898;-79
2023/01/02 23:30:45;;;;;;;;;;;18.30;55.30;;;;;;10244650;28;850;-79
2023/01/02 23:35:40;;;;;;;;;;;18.30;55.30;;;;;;10246118;28;1256;-79
2023/01/02 23:40:35;;;;;;;;;;;18.30;55.30;;;;;;10252493;28;862;-79
2023/01/02 23:45:31;;;;;;;;;;;18.30;55.20;;;;;;10252112;28;1914;-79
2023/01/02 23:50:26;;;;;;;;;;;18.30;55.10;;;;;;10251983;28;969;-79
2023/01/02 23:55:22;;;;;;;;;;;18.30;54.90;;;;;;10251303;28;945;-79
